Time;durP1;ratioP1;P1;durP2;ratioP2;P2;SDS_P1;SDS_P2;PMS_P1;PMS_P2;Temp;Humidity;BMP_temperature;BMP_pressure;BME280_temperature;BME280_humidity;BME280_pressure;Samples;Min_cycle;Max_cycle;Signal;HPM_P1;HPM_P2
2023/04/19 00:01:07;;;;;;;19.23;10.98;;;12.80;99.90;;;;;;4997543;28;20030;-80
2023/04/19 00:03:34;;;;;;;17.35;10.57;;;12.80;99.90;;;;;;4999153;28;20069;-81
2023/04/19 00:06:01;;;;;;;20.55;12.00;;;12.80;99.90;;;;;;4997367;28;20025;-81
2023/04/19 00:08:29;;;;;;;19.05;10.65;;;12.90;99.90;;;;;;4996840;28;20386;-80
2023/04/19 00:10:57;;;;;;;14.27;10.15;;;12.90;99.90;;;;;;5005647;28;20394;-80
2023/04/19 00:13:22;;;;;;;24.27;11.48;;;12.90;99.90;;;;;;4996555;28;20019;-80
2023/04/19 00:15:48;;;;;;;18.77;10.70;;;12.90;99.90;;;;;;5001597;28;20047;-80
2023/04/19 00:18:14;;;;;;;17.40;10.00;;;12.90;99.90;;;;;;4994229;28;20027;-80
2023/04/19 00:20:41;;;;;;;14.90;9.63;;;12.90;99.90;;;;;;5000339;28;20484;-79
2023/04/19 00:23:09;;;;;;;16.70;10.75;;;12.90;99.90;;;;;;5002366;28;20474;-81
2023/04/19 00:25:35;;;;;;;20.40;10.55;;;13.00;99.90;;;;;;5001155;28;20026;-80
2023/04/19 00:28:01;;;;;;;17.90;10.63;;;13.00;99.90;;;;;;4999700;28;20049;-80
2023/04/19 00:30:27;;;;;;;21.38;10.10;;;12.90;99.90;;;;;;4996541;28;20289;-80
2023/04/19 00:32:52;;;;;;;14.13;9.63;;;13.00;99.90;;;;;;4996843;28;20076;-80
2023/04/19 00:35:18;;;;;;;19.15;10.52;;;13.00;99.90;;;;;;4997157;28;20053;-80
2023/04/19 00:37:46;;;;;;;16.15;10.43;;;13.10;99.90;;;;;;5003357;28;20391;-80
2023/04/19 00:40:14;;;;;;;16.23;10.77;;;13.00;99.90;;;;;;5005743;28;20121;-79
2023/04/19 00:42:40;;;;;;;16.48;10.15;;;13.10;99.90;;;;;;4999187;28;20037;-80
2023/04/19 00:45:07;;;;;;;17.10;10.25;;;13.00;99.90;;;;;;4990358;28;20435;-79
2023/04/19 00:47:40;;;;;;;19.17;10.55;;;13.00;99.90;;;;;;4996277;28;20101;-80
2023/04/19 00:50:07;;;;;;;15.05;10.25;;;13.00;99.90;;;;;;5000420;28;20225;-80
2023/04/19 00:52:33;;;;;;;17.77;10.45;;;13.00;99.90;;;;;;4993077;28;20072;-80
2023/04/19 00:55:00;;;;;;;15.65;9.98;;;13.00;99.90;;;;;;4995858;28;20117;-81
2023/04/19 00:57:26;;;;;;;20.20;9.77;;;13.00;99.90;;;;;;4997707;28;20430;-81
2023/04/19 00:59:55;;;;;;;17.88;9.75;;;12.90;99.90;;;;;;4995990;28;20038;-80
2023/04/19 01:02:21;;;;;;;18.05;10.55;;;12.90;99.90;;;;;;4995479;28;20473;-80
2023/04/19 01:04:46;;;;;;;15.35;10.20;;;12.90;99.90;;;;;;4994622;28;20106;-81
2023/04/19 01:07:12;;;;;;;18.05;9.82;;;12.80;99.90;;;;;;4994770;28;20072;-79
2023/04/19 01:09:44;;;;;;;16.55;9.60;;;12.80;99.90;;;;;;4995253;28;20034;-79
2023/04/19 01:12:10;;;;;;;19.27;10.50;;;12.70;99.90;;;;;;4995291;28;20023;-80
2023/04/19 01:14:36;;;;;;;18.63;9.93;;;12.70;99.90;;;;;;4998080;28;20022;-81
2023/04/19 01:17:01;;;;;;;14.80;9.73;;;12.60;99.90;;;;;;4998786;28;20021;-80
2023/04/19 01:19:27;;;;;;;15.80;9.13;;;12.60;99.90;;;;;;4996538;28;20046;-80
2023/04/19 01:21:55;;;;;;;14.48;9.25;;;12.50;99.90;;;;;;5002378;28;20030;-79
2023/04/19 01:24:20;;;;;;;17.02;10.20;;;12.50;99.90;;;;;;4997763;28;20477;-79
2023/04/19 01:26:46;;;;;;;16.02;9.30;;;12.40;99.90;;;;;;4995194;28;20030;-80
2023/04/19 01:29:12;;;;;;;12.63;8.63;;;12.40;99.90;;;;;;4996936;28;20025;-80
2023/04/19 01:31:38;;;;;;;14.48;9.55;;;12.30;99.90;;;;;;4996002;28;20014;-80
2023/04/19 01:34:06;;;;;;;16.83;9.70;;;12.30;99.90;;;;;;4998179;28;20046;-81
2023/04/19 01:36:32;;;;;;;19.17;9.80;;;12.20;99.90;;;;;;4998108;28;20036;-80
2023/04/19 01:39:00;;;;;;;15.02;9.65;;;12.20;99.90;;;;;;4996746;28;20026;-81
2023/04/19 01:41:25;;;;;;;13.27;8.90;;;12.20;99.90;;;;;;4997832;28;20021;-80
2023/04/19 01:43:54;;;;;;;16.17;9.05;;;12.20;99.90;;;;;;4998281;28;20034;-79
2023/04/19 01:46:20;;;;;;;17.27;9.18;;;12.20;99.90;;;;;;5006936;28;20019;-80
2023/04/19 01:48:45;;;;;;;16.73;9.35;;;12.20;99.90;;;;;;4996229;28;20032;-80
2023/04/19 01:51:13;;;;;;;16.58;9.13;;;12.20;99.90;;;;;;4995736;28;20121;-79
2023/04/19 01:53:39;;;;;;;14.55;8.88;;;12.10;99.90;;;;;;4995348;28;20140;-80
2023/04/19 01:56:05;;;;;;;11.90;8.52;;;12.10;99.90;;;;;;5002600;28;20101;-80
2023/04/19 01:58:30;;;;;;;16.35;8.65;;;12.10;99.90;;;;;;4997725;28;20041;-79
2023/04/19 02:01:03;;;;;;;13.73;8.38;;;12.10;99.90;;;;;;4995744;28;20323;-80
2023/04/19 02:03:29;;;;;;;11.80;7.90;;;12.10;99.90;;;;;;4993127;28;20106;-79
2023/04/19 02:05:54;;;;;;;13.15;8.02;;;12.10;99.90;;;;;;4996328;28;20474;-80
2023/04/19 02:08:20;;;;;;;11.77;7.80;;;12.10;99.90;;;;;;4994736;28;20026;-79
2023/04/19 02:10:45;;;;;;;10.77;7.85;;;12.20;99.90;;;;;;4996406;28;20569;-81
2023/04/19 02:13:11;;;;;;;13.00;8.13;;;12.20;99.90;;;;;;4995444;28;20117;-80
2023/04/19 02:15:39;;;;;;;12.80;7.63;;;12.30;99.90;;;;;;4994714;28;20029;-80
2023/04/19 02:18:05;;;;;;;15.30;7.50;;;12.30;99.90;;;;;;4995136;28;20065;-79
2023/04/19 02:20:31;;;;;;;11.10;7.60;;;12.30;99.90;;;;;;4996651;28;20054;-79
2023/04/19 02:22:57;;;;;;;10.40;6.72;;;12.30;99.90;;;;;;4995290;28;20092;-80
2023/04/19 02:25:22;;;;;;;12.52;6.40;;;12.30;99.90;;;;;;5000279;28;20727;-80
2023/04/19 02:27:48;;;;;;;9.38;6.70;;;12.30;99.90;;;;;;4993793;28;20026;-81
2023/04/19 02:30:14;;;;;;;11.13;6.88;;;12.30;99.90;;;;;;4996226;28;20022;-80
2023/04/19 02:32:40;;;;;;;9.35;6.45;;;12.30;99.90;;;;;;4996007;28;20530;-80
2023/04/19 02:35:06;;;;;;;8.68;6.43;;;12.20;99.90;;;;;;4996330;28;20026;-79
2023/04/19 02:37:31;;;;;;;8.88;6.55;;;12.30;99.90;;;;;;4997585;28;20030;-81
2023/04/19 02:39:57;;;;;;;11.05;6.25;;;12.20;99.90;;;;;;4999828;28;20040;-81
2023/04/19 02:42:23;;;;;;;10.63;5.80;;;12.20;99.90;;;;;;5001207;28;20018;-80
2023/04/19 02:44:48;;;;;;;9.38;5.63;;;12.20;99.90;;;;;;5002148;28;20019;-79
2023/04/19 02:47:14;;;;;;;10.05;6.00;;;12.20;99.90;;;;;;4999212;28;20049;-80
2023/04/19 02:49:42;;;;;;;8.65;5.57;;;12.10;99.90;;;;;;4996118;28;20120;-79
2023/04/19 02:52:07;;;;;;;10.65;5.38;;;12.20;99.90;;;;;;5001901;28;20394;-79
2023/04/19 02:54:34;;;;;;;7.93;5.32;;;12.10;99.90;;;;;;5001330;28;20037;-80
2023/04/19 02:56:59;;;;;;;10.18;5.13;;;12.10;99.90;;;;;;4996588;28;20142;-86
2023/04/19 02:59:25;;;;;;;13.18;6.60;;;12.10;99.90;;;;;;5000556;28;20410;-84
2023/04/19 03:01:51;;;;;;;10.25;6.72;;;12.10;99.90;;;;;;5005423;28;20052;-80
2023/04/19 03:04:17;;;;;;;7.35;5.15;;;12.10;99.90;;;;;;4998970;28;20041;-80
2023/04/19 03:06:43;;;;;;;10.02;4.93;;;12.00;99.90;;;;;;4998573;28;20513;-80
2023/04/19 03:09:09;;;;;;;10.00;5.40;;;12.00;99.90;;;;;;5000784;28;20022;-79
2023/04/19 03:11:35;;;;;;;7.63;5.78;;;12.00;99.90;;;;;;4997820;28;20030;-81
2023/04/19 03:14:01;;;;;;;10.63;5.97;;;12.00;99.90;;;;;;4998707;28;20112;-79
2023/04/19 03:16:29;;;;;;;7.30;4.93;;;12.00;99.90;;;;;;4995443;28;20105;-80
2023/04/19 03:18:54;;;;;;;7.65;5.28;;;12.00;99.90;;;;;;5001236;28;20156;-80
2023/04/19 03:21:20;;;;;;;8.98;5.45;;;11.90;99.90;;;;;;5001816;28;20051;-80
2023/04/19 03:23:46;;;;;;;7.05;5.10;;;11.90;99.90;;;;;;5001118;28;20112;-81
2023/04/19 03:26:11;;;;;;;6.82;5.07;;;11.90;99.90;;;;;;5000106;28;20030;-80
2023/04/19 03:28:37;;;;;;;11.75;5.63;;;11.90;99.90;;;;;;4999431;28;20036;-80
2023/04/19 03:31:05;;;;;;;8.52;5.00;;;11.90;99.90;;;;;;4997754;28;20478;-80
2023/04/19 03:33:30;;;;;;;10.40;5.32;;;11.90;99.90;;;;;;5003130;28;20026;-80
2023/04/19 03:35:56;;;;;;;7.88;4.75;;;11.90;99.90;;;;;;4998479;28;20034;-80
2023/04/19 03:38:22;;;;;;;6.05;4.85;;;11.90;99.90;;;;;;5004159;28;20026;-80
2023/04/19 03:40:47;;;;;;;8.05;4.95;;;11.80;99.90;;;;;;5001361;28;20023;-82
2023/04/19 03:43:13;;;;;;;7.90;5.20;;;11.70;99.90;;;;;;5003731;28;20080;-80
2023/04/19 03:45:39;;;;;;;8.30;5.25;;;11.70;99.90;;;;;;4997161;28;20030;-80
2023/04/19 03:48:04;;;;;;;6.80;4.50;;;11.60;99.90;;;;;;4988510;28;20025;-79
2023/04/19 03:50:30;;;;;;;9.48;5.38;;;11.50;99.90;;;;;;5000046;28;20041;-80
2023/04/19 03:52:58;;;;;;;11.82;5.28;;;11.60;99.90;;;;;;4997031;28;20030;-80
2023/04/19 03:55:24;;;;;;;6.03;4.60;;;11.40;99.90;;;;;;4998782;28;20040;-80
2023/04/19 03:57:50;;;;;;;10.50;5.90;;;11.40;99.90;;;;;;4998116;28;20018;-79
2023/04/19 04:00:16;;;;;;;13.23;5.65;;;11.30;99.90;;;;;;4996742;28;20026;-80
2023/04/19 04:02:44;;;;;;;7.63;5.57;;;11.30;99.90;;;;;;4997065;28;20076;-81
2023/04/19 04:05:09;;;;;;;8.02;5.53;;;11.20;99.90;;;;;;4998032;28;20057;-80
2023/04/19 04:07:37;;;;;;;8.23;5.50;;;11.20;99.90;;;;;;4996748;28;20018;-80
2023/04/19 04:10:03;;;;;;;9.15;5.50;;;11.20;99.90;;;;;;4999479;28;20045;-80
2023/04/19 04:12:29;;;;;;;11.40;6.28;;;11.10;99.90;;;;;;4996510;28;20031;-80
2023/04/19 04:14:54;;;;;;;7.32;5.78;;;11.00;99.90;;;;;;4997558;28;20018;-80
2023/04/19 04:17:21;;;;;;;12.07;5.63;;;11.00;99.90;;;;;;5005200;28;20107;-80
2023/04/19 04:19:54;;;;;;;8.75;5.95;;;11.00;99.90;;;;;;5003609;28;20021;-85
2023/04/19 04:22:20;;;;;;;7.88;5.80;;;10.90;99.90;;;;;;4997905;28;20048;-85
2023/04/19 04:24:46;;;;;;;7.32;5.45;;;10.90;99.90;;;;;;5000808;28;20022;-84
2023/04/19 04:27:12;;;;;;;11.05;6.45;;;10.90;99.90;;;;;;4994973;28;20625;-85
2023/04/19 04:29:38;;;;;;;8.35;5.78;;;10.80;99.90;;;;;;4999075;28;20030;-85
2023/04/19 04:32:09;;;;;;;8.38;5.50;;;10.80;99.90;;;;;;5000597;28;20041;-85
2023/04/19 04:34:36;;;;;;;8.63;5.63;;;10.80;99.90;;;;;;5000916;28;20093;-84
2023/04/19 04:37:02;;;;;;;11.75;5.13;;;10.80;99.90;;;;;;4995604;28;20482;-84
2023/04/19 04:39:28;;;;;;;9.45;5.75;;;10.80;99.90;;;;;;4998653;28;20033;-84
2023/04/19 04:41:56;;;;;;;10.45;6.05;;;10.70;99.90;;;;;;4995791;28;20027;-85
2023/04/19 04:44:22;;;;;;;11.32;6.13;;;10.70;99.90;;;;;;5000594;28;20019;-84
2023/04/19 04:46:50;;;;;;;10.85;5.88;;;10.70;99.90;;;;;;4995840;28;20049;-84
2023/04/19 04:49:16;;;;;;;9.35;5.78;;;10.70;99.90;;;;;;4995118;28;20031;-85
2023/04/19 04:51:42;;;;;;;8.98;6.60;;;10.70;99.90;;;;;;4995096;28;20049;-85
2023/04/19 04:54:07;;;;;;;13.55;6.32;;;10.70;99.90;;;;;;5001754;28;20052;-84
2023/04/19 04:56:33;;;;;;;11.63;6.15;;;10.70;99.90;;;;;;5000626;28;20242;-84
2023/04/19 04:58:58;;;;;;;14.88;6.05;;;10.70;99.90;;;;;;5000692;28;20030;-83
2023/04/19 05:01:24;;;;;;;11.13;5.30;;;10.70;99.90;;;;;;5008709;28;20022;-81
2023/04/19 05:03:50;;;;;;;10.43;6.20;;;10.60;99.90;;;;;;5022627;28;20110;-82
2023/04/19 05:06:16;;;;;;;12.40;5.97;;;10.60;99.90;;;;;;5029622;28;20037;-81
2023/04/19 05:08:42;;;;;;;10.73;6.35;;;10.60;99.90;;;;;;5024781;28;20018;-83
2023/04/19 05:11:10;;;;;;;15.82;6.32;;;10.70;99.90;;;;;;5012042;28;20069;-85
2023/04/19 05:13:36;;;;;;;9.45;6.00;;;10.60;99.90;;;;;;5001707;28;20045;-85
2023/04/19 05:16:02;;;;;;;8.35;6.10;;;10.70;99.90;;;;;;5002691;28;20022;-84
2023/04/19 05:18:30;;;;;;;8.40;5.65;;;10.70;99.90;;;;;;4996372;28;20078;-84
2023/04/19 05:20:58;;;;;;;12.98;5.57;;;10.70;99.90;;;;;;4994750;28;20447;-84
2023/04/19 05:23:24;;;;;;;13.35;6.32;;;10.70;99.90;;;;;;4995093;28;20019;-84
2023/04/19 05:25:50;;;;;;;9.25;5.68;;;10.70;99.90;;;;;;4999544;28;20405;-84
2023/04/19 05:28:15;;;;;;;13.40;5.75;;;10.70;99.90;;;;;;5002206;28;20219;-84
2023/04/19 05:30:41;;;;;;;8.13;5.63;;;10.80;99.90;;;;;;4999456;28;20032;-84
2023/04/19 05:33:09;;;;;;;14.30;6.35;;;10.80;99.90;;;;;;4996687;28;20030;-87
2023/04/19 05:35:34;;;;;;;9.18;6.07;;;10.80;99.90;;;;;;5000889;28;20046;-85
2023/04/19 05:38:00;;;;;;;7.63;5.07;;;10.80;99.90;;;;;;4997949;28;20053;-83
2023/04/19 05:40:27;;;;;;;14.15;5.60;;;10.80;99.90;;;;;;5005066;28;20026;-85
2023/04/19 05:42:52;;;;;;;7.00;4.80;;;10.80;99.90;;;;;;4998143;28;20068;-85
2023/04/19 05:45:18;;;;;;;8.88;5.55;;;10.70;99.90;;;;;;5001439;28;20039;-85
2023/04/19 05:47:44;;;;;;;10.48;5.13;;;10.80;99.90;;;;;;5001989;28;20077;-85
2023/04/19 05:50:09;;;;;;;12.77;4.70;;;10.80;99.90;;;;;;4996982;28;20129;-85
2023/04/19 05:52:35;;;;;;;11.00;5.35;;;10.90;99.90;;;;;;4991827;28;20057;-85
2023/04/19 05:55:01;;;;;;;10.55;5.35;;;10.90;99.90;;;;;;5002597;28;20026;-85
2023/04/19 05:57:26;;;;;;;6.80;4.68;;;10.90;99.90;;;;;;4999538;28;20366;-85
2023/04/19 05:59:52;;;;;;;5.53;4.72;;;11.00;99.90;;;;;;5006664;28;20052;-84
2023/04/19 06:02:18;;;;;;;7.90;4.70;;;11.00;99.90;;;;;;5002011;28;20485;-85
2023/04/19 06:04:46;;;;;;;8.82;4.70;;;11.00;99.70;;;;;;4997682;28;20057;-85
2023/04/19 06:07:11;;;;;;;9.32;4.38;;;11.10;99.20;;;;;;4999213;28;20037;-86
2023/04/19 06:09:37;;;;;;;6.18;4.55;;;11.20;99.20;;;;;;4999702;28;20370;-85
2023/04/19 06:12:03;;;;;;;6.65;4.45;;;11.30;98.20;;;;;;5004812;28;20026;-85
2023/04/19 06:14:28;;;;;;;9.55;4.60;;;11.30;97.80;;;;;;5000711;28;20432;-84
2023/04/19 06:16:54;;;;;;;11.77;4.60;;;11.20;97.20;;;;;;5000550;28;20125;-85
2023/04/19 06:19:20;;;;;;;8.95;4.32;;;11.20;96.90;;;;;;5001875;28;20026;-85
2023/04/19 06:21:46;;;;;;;7.50;4.22;;;11.20;96.20;;;;;;4999942;28;20044;-84
2023/04/19 06:24:12;;;;;;;6.22;3.80;;;11.20;96.30;;;;;;5001533;28;20046;-84
2023/04/19 06:26:37;;;;;;;6.30;4.22;;;11.30;96.00;;;;;;4999126;28;20033;-84
2023/04/19 06:29:03;;;;;;;7.43;4.05;;;11.40;95.70;;;;;;5014800;28;20424;-85
2023/04/19 06:31:29;;;;;;;6.95;3.78;;;11.50;95.10;;;;;;5000726;28;20026;-85
2023/04/19 06:33:55;;;;;;;10.68;3.60;;;11.60;95.00;;;;;;5001877;28;20029;-84
2023/04/19 06:36:20;;;;;;;6.07;3.90;;;11.60;94.70;;;;;;5015865;28;20030;-83
2023/04/19 06:38:46;;;;;;;7.82;3.42;;;11.50;93.50;;;;;;5023432;28;20026;-84
2023/04/19 06:41:12;;;;;;;5.85;2.92;;;11.50;93.30;;;;;;5010768;28;20026;-84
2023/04/19 06:43:39;;;;;;;3.90;3.38;;;11.40;92.70;;;;;;5005630;28;20108;-83
2023/04/19 06:46:05;;;;;;;3.78;3.40;;;11.40;92.60;;;;;;5003978;28;20026;-83
2023/04/19 06:48:32;;;;;;;6.35;3.17;;;11.50;92.40;;;;;;5005785;28;20161;-83
2023/04/19 06:50:58;;;;;;;7.25;3.42;;;11.60;92.30;;;;;;5003255;28;20379;-85
2023/04/19 06:53:25;;;;;;;9.15;3.55;;;11.50;91.70;;;;;;4994607;28;20038;-84
2023/04/19 06:55:58;;;;;;;5.13;2.75;;;11.50;92.00;;;;;;4996799;28;20063;-84
2023/04/19 06:58:24;;;;;;;9.45;3.28;;;11.50;92.10;;;;;;5005861;28;20041;-83
2023/04/19 07:00:50;;;;;;;12.57;3.78;;;11.50;91.70;;;;;;4997639;28;20437;-84
2023/04/19 07:03:16;;;;;;;12.57;3.10;;;11.60;92.00;;;;;;4999768;28;20045;-84
2023/04/19 07:05:41;;;;;;;6.07;3.30;;;11.70;91.70;;;;;;4997912;28;20460;-83
2023/04/19 07:08:07;;;;;;;9.98;3.45;;;11.80;91.30;;;;;;4998276;28;20069;-84
2023/04/19 07:10:33;;;;;;;4.80;2.78;;;11.90;91.40;;;;;;4994843;28;20437;-84
2023/04/19 07:12:58;;;;;;;7.22;2.97;;;12.00;91.10;;;;;;4999558;28;20435;-84
2023/04/19 07:15:24;;;;;;;5.50;3.53;;;12.10;90.90;;;;;;5005506;28;20058;-84
2023/04/19 07:17:49;;;;;;;5.13;3.08;;;12.10;90.30;;;;;;4998516;28;20030;-84
2023/04/19 07:20:15;;;;;;;6.18;3.17;;;12.10;89.70;;;;;;5004808;28;20462;-84
2023/04/19 07:22:41;;;;;;;5.00;2.92;;;12.00;90.30;;;;;;5000418;28;20080;-84
2023/04/19 07:25:07;;;;;;;5.28;2.97;;;12.10;89.70;;;;;;5002972;28;20471;-82
2023/04/19 07:27:32;;;;;;;6.30;3.17;;;12.10;90.00;;;;;;5009824;28;20130;-84
2023/04/19 07:29:58;;;;;;;7.75;3.58;;;12.10;90.10;;;;;;5009343;28;20027;-84
2023/04/19 07:32:26;;;;;;;6.38;2.88;;;12.10;90.00;;;;;;5000819;28;20397;-83
2023/04/19 07:34:51;;;;;;;6.15;3.28;;;12.20;90.10;;;;;;5001504;28;20028;-86
2023/04/19 07:37:17;;;;;;;3.75;2.88;;;12.30;89.90;;;;;;5000457;28;20033;-83
2023/04/19 07:39:43;;;;;;;11.50;2.60;;;12.40;88.60;;;;;;5000961;28;20076;-82
2023/04/19 07:42:08;;;;;;;9.85;2.88;;;12.50;88.60;;;;;;5005023;28;20465;-84
2023/04/19 07:44:34;;;;;;;8.05;3.47;;;12.50;88.60;;;;;;5009947;28;20023;-82
2023/04/19 07:47:00;;;;;;;10.10;3.00;;;12.50;87.00;;;;;;4999767;28;20024;-84
2023/04/19 07:49:25;;;;;;;4.35;2.42;;;12.60;87.60;;;;;;5008358;28;20117;-83
2023/04/19 07:51:51;;;;;;;5.43;2.40;;;12.70;86.90;;;;;;5005616;28;20054;-83
2023/04/19 07:54:19;;;;;;;7.18;2.60;;;12.60;85.50;;;;;;5000309;28;20022;-83
2023/04/19 07:56:44;;;;;;;5.00;2.75;;;12.60;85.10;;;;;;5001597;28;20029;-83
2023/04/19 07:59:10;;;;;;;6.43;2.50;;;12.70;86.40;;;;;;5001416;28;20046;-83
2023/04/19 08:01:36;;;;;;;6.30;2.30;;;12.90;85.70;;;;;;5000427;28;20018;-84
2023/04/19 08:04:01;;;;;;;6.72;2.92;;;13.00;87.30;;;;;;5000680;28;20494;-85
2023/04/19 08:06:29;;;;;;;9.13;2.95;;;13.00;86.90;;;;;;4999344;28;20470;-83
2023/04/19 08:08:55;;;;;;;10.52;2.90;;;13.20;86.30;;;;;;5003993;28;20437;-85
2023/04/19 08:11:20;;;;;;;6.97;2.67;;;13.20;86.60;;;;;;4999581;28;20110;-83
2023/04/19 08:13:46;;;;;;;6.28;2.88;;;13.10;84.70;;;;;;5001172;28;20025;-79
2023/04/19 08:16:11;;;;;;;7.25;2.60;;;13.10;85.00;;;;;;4999122;28;20041;-79
2023/04/19 08:18:37;;;;;;;3.05;2.35;;;13.20;85.30;;;;;;5000507;28;20072;-79
2023/04/19 08:21:03;;;;;;;3.60;2.53;;;13.50;84.60;;;;;;4999506;28;20430;-79
2023/04/19 08:23:29;;;;;;;6.78;2.55;;;13.70;83.00;;;;;;5000842;28;20111;-80
2023/04/19 08:25:55;;;;;;;3.97;2.30;;;13.90;82.60;;;;;;4998070;28;20074;-79
2023/04/19 08:28:20;;;;;;;4.93;2.60;;;13.90;81.70;;;;;;4996848;28;20034;-80
2023/04/19 08:30:46;;;;;;;4.60;2.65;;;13.90;80.60;;;;;;4998667;28;20037;-79
2023/04/19 08:33:12;;;;;;;3.70;2.13;;;14.00;79.50;;;;;;4996536;28;21337;-82
2023/04/19 08:35:40;;;;;;;3.90;2.10;;;14.00;78.60;;;;;;5016170;28;20025;-79
2023/04/19 08:38:14;;;;;;;5.07;2.42;;;14.10;79.80;;;;;;4997810;28;20026;-79
2023/04/19 08:40:46;;;;;;;2.35;1.85;;;14.30;78.30;;;;;;4997989;28;20026;-79
2023/04/19 08:43:11;;;;;;;1.90;1.80;;;14.40;77.60;;;;;;5003852;28;20195;-80
2023/04/19 08:45:38;;;;;;;3.80;2.75;;;14.60;77.50;;;;;;4995635;28;20119;-79
2023/04/19 08:48:05;;;;;;;9.02;1.80;;;14.80;77.30;;;;;;4999172;28;20040;-79
2023/04/19 08:50:34;;;;;;;3.17;1.52;;;15.10;77.10;;;;;;4999404;28;20036;-78
2023/04/19 08:53:01;;;;;;;2.33;1.70;;;15.20;72.50;;;;;;5016155;28;20047;-80
2023/04/19 08:55:28;;;;;;;5.57;1.77;;;15.30;73.30;;;;;;5004242;28;20145;-79
2023/04/19 08:57:57;;;;;;;6.40;1.88;;;15.70;73.00;;;;;;5001506;28;20034;-79
2023/04/19 09:00:23;;;;;;;4.55;1.80;;;15.70;69.20;;;;;;4999169;28;20096;-79
2023/04/19 09:02:51;;;;;;;5.78;1.75;;;15.90;70.90;;;;;;4998019;28;20935;-79
2023/04/19 09:05:17;;;;;;;7.00;1.70;;;15.90;67.70;;;;;;5005046;28;20026;-79
2023/04/19 09:07:44;;;;;;;4.07;1.48;;;16.00;69.80;;;;;;5000862;28;20038;-79
2023/04/19 09:10:13;;;;;;;4.68;1.63;;;16.00;65.80;;;;;;4997187;28;20109;-83
2023/04/19 09:12:39;;;;;;;2.67;1.60;;;16.00;64.80;;;;;;4998793;28;20502;-79
2023/04/19 09:15:09;;;;;;;4.13;1.30;;;16.10;65.40;;;;;;5002659;28;20081;-80
2023/04/19 09:17:36;;;;;;;2.95;1.38;;;16.30;64.10;;;;;;5006017;28;20077;-79
2023/04/19 09:20:03;;;;;;;3.50;1.50;;;16.40;61.10;;;;;;4997174;28;20036;-79
2023/04/19 09:22:29;;;;;;;2.00;1.70;;;16.30;60.90;;;;;;5000592;28;20494;-80
2023/04/19 09:24:55;;;;;;;5.15;2.17;;;16.40;64.30;;;;;;4993526;28;20030;-81
2023/04/19 09:27:31;;;;;;;3.88;2.00;;;16.60;64.60;;;;;;4996628;28;20035;-80
2023/04/19 09:29:59;;;;;;;7.05;2.50;;;16.60;62.90;;;;;;4997692;28;20030;-79
2023/04/19 09:32:26;;;;;;;3.15;1.60;;;16.70;63.70;;;;;;5003217;28;20022;-80
2023/04/19 09:34:53;;;;;;;3.30;1.80;;;16.90;63.30;;;;;;5014920;28;20527;-79
2023/04/19 09:37:19;;;;;;;2.72;1.90;;;17.10;62.60;;;;;;5004030;28;20022;-79
2023/04/19 09:39:45;;;;;;;5.15;2.67;;;17.20;62.50;;;;;;4996521;28;20018;-80
2023/04/19 09:42:11;;;;;;;6.25;2.08;;;17.30;62.30;;;;;;4995599;28;20113;-80
2023/04/19 09:44:37;;;;;;;4.55;1.70;;;17.40;62.20;;;;;;4999036;28;20029;-79
2023/04/19 09:47:21;;;;;;;2.17;1.67;;;17.30;60.90;;;;;;5000973;28;20025;-80
2023/04/19 09:49:47;;;;;;;2.53;1.40;;;17.40;59.70;;;;;;4995693;28;20030;-79
2023/04/19 09:52:13;;;;;;;3.53;2.20;;;17.50;60.00;;;;;;5009228;28;20044;-79
2023/04/19 09:54:40;;;;;;;13.07;1.70;;;17.60;59.70;;;;;;5003880;28;20023;-80
2023/04/19 09:57:07;;;;;;;7.90;1.77;;;17.80;59.40;;;;;;5005161;28;20025;-81
2023/04/19 09:59:33;;;;;;;4.97;1.70;;;18.30;59.40;;;;;;4995835;28;20469;-79
2023/04/19 10:02:00;;;;;;;4.20;1.30;;;18.40;56.70;;;;;;4995951;28;20042;-80
2023/04/19 10:04:26;;;;;;;3.42;1.90;;;18.30;57.10;;;;;;4998045;28;20026;-80
2023/04/19 10:06:53;;;;;;;7.32;2.00;;;18.70;57.40;;;;;;4997246;28;20044;-79
2023/04/19 10:09:21;;;;;;;3.45;1.85;;;19.30;58.20;;;;;;5002043;28;20065;-79
2023/04/19 10:11:50;;;;;;;2.70;2.10;;;19.20;56.10;;;;;;4996332;28;20309;-79
2023/04/19 10:14:21;;;;;;;5.47;2.00;;;18.80;55.20;;;;;;4998772;28;21160;-79
2023/04/19 10:16:47;;;;;;;5.30;1.73;;;18.60;54.70;;;;;;4997703;28;20044;-79
2023/04/19 10:19:16;;;;;;;3.08;1.88;;;18.80;56.90;;;;;;5001147;28;20026;-80
2023/04/19 10:21:46;;;;;;;2.42;2.22;;;18.70;54.20;;;;;;5010211;28;20033;-80
2023/04/19 10:24:17;;;;;;;8.10;2.10;;;18.70;54.20;;;;;;4994619;28;20031;-79
2023/04/19 10:27:01;;;;;;;6.93;2.10;;;18.50;52.10;;;;;;4999879;28;20034;-80
2023/04/19 10:30:04;;;;;;;4.82;2.15;;;18.60;52.30;;;;;;4996002;28;20022;-80
2023/04/19 10:32:39;;;;;;;9.90;2.50;;;18.70;50.80;;;;;;4997681;28;20031;-79
2023/04/19 10:35:16;;;;;;;3.83;1.80;;;18.70;50.30;;;;;;4989057;28;20113;-80
2023/04/19 10:38:05;;;;;;;6.43;2.38;;;18.70;49.40;;;;;;5006192;28;20497;-79
2023/04/19 10:40:49;;;;;;;4.80;2.15;;;19.40;50.90;;;;;;4998454;28;20028;-79
2023/04/19 10:43:16;;;;;;;5.70;2.33;;;19.50;50.00;;;;;;5001013;28;21122;-79
2023/04/19 10:45:42;;;;;;;2.97;2.25;;;19.90;50.20;;;;;;4996905;28;20049;-79
2023/04/19 10:48:34;;;;;;;5.03;2.25;;;19.90;50.20;;;;;;4991694;28;20490;-79
2023/04/19 10:51:20;;;;;;;2.90;2.10;;;19.80;50.10;;;;;;4995417;28;20154;-79
2023/04/19 10:53:48;;;;;;;4.00;2.30;;;19.70;48.30;;;;;;4996508;28;20019;-79
2023/04/19 10:56:20;;;;;;;9.30;2.45;;;19.40;46.60;;;;;;5016350;28;20026;-79
2023/04/19 11:01:44;;;;;;;6.93;2.10;;;19.40;46.10;;;;;;5004762;28;20022;-79
2023/04/19 11:04:14;;;;;;;3.50;2.35;;;19.50;47.30;;;;;;4994125;28;20033;-80
2023/04/19 11:06:52;;;;;;;3.95;2.25;;;19.60;45.30;;;;;;5000156;28;20077;-79
2023/04/19 11:09:24;;;;;;;2.63;2.10;;;20.20;46.10;;;;;;4999918;28;20018;-79
2023/04/19 11:11:51;;;;;;;3.28;2.00;;;20.10;45.00;;;;;;5000682;28;20036;-79
2023/04/19 11:14:21;;;;;;;2.45;2.00;;;20.10;44.50;;;;;;5001981;28;20022;-79
2023/04/19 11:16:46;;;;;;;4.85;2.55;;;20.20;44.80;;;;;;5011135;28;20080;-79
2023/04/19 11:19:16;;;;;;;3.70;1.90;;;20.60;45.70;;;;;;5007075;28;20018;-79
2023/04/19 11:21:44;;;;;;;7.25;2.10;;;20.80;43.20;;;;;;5001731;28;20042;-79
2023/04/19 11:24:11;;;;;;;8.35;2.63;;;20.50;41.60;;;;;;5004907;28;20052;-80
2023/04/19 11:26:37;;;;;;;10.85;2.63;;;20.30;41.70;;;;;;5003750;28;20096;-80
2023/04/19 11:29:03;;;;;;;2.30;2.10;;;20.10;42.20;;;;;;5000446;28;20430;-78
2023/04/19 11:31:32;;;;;;;3.35;2.35;;;20.10;42.70;;;;;;4996554;28;20037;-80
2023/04/19 11:33:59;;;;;;;7.68;2.40;;;20.00;43.10;;;;;;5008966;28;20034;-80
2023/04/19 11:36:24;;;;;;;4.53;1.98;;;20.10;42.60;;;;;;4998322;28;20022;-79
2023/04/19 11:38:52;;;;;;;7.38;2.50;;;20.30;43.70;;;;;;4999000;28;20457;-80
2023/04/19 11:41:18;;;;;;;7.35;2.70;;;20.40;43.70;;;;;;4999194;28;20026;-79
2023/04/19 11:43:47;;;;;;;79.32;30.88;;;20.60;42.90;;;;;;5000014;28;20060;-88
2023/04/19 11:46:13;;;;;;;3.67;2.25;;;20.80;43.80;;;;;;5000183;28;20116;-82
2023/04/19 11:48:52;;;;;;;6.20;2.15;;;20.60;41.30;;;;;;5001303;28;20126;-79
2023/04/19 11:51:18;;;;;;;7.85;2.42;;;20.40;42.20;;;;;;4985353;28;20053;-79
2023/04/19 11:53:43;;;;;;;4.55;2.65;;;20.40;43.10;;;;;;4998578;28;20030;-79
2023/04/19 11:56:14;;;;;;;9.88;2.70;;;20.60;44.00;;;;;;4998575;28;20490;-79
2023/04/19 11:58:44;;;;;;;6.22;2.42;;;20.60;42.60;;;;;;4999037;28;20088;-81
2023/04/19 12:01:11;;;;;;;3.90;2.22;;;20.40;41.80;;;;;;4998080;28;20033;-83
2023/04/19 12:03:45;;;;;;;8.65;3.00;;;20.50;43.30;;;;;;5002982;28;20069;-82
2023/04/19 12:06:24;;;;;;;9.25;2.33;;;20.30;42.40;;;;;;4996676;28;20379;-82
2023/04/19 12:08:51;;;;;;;5.47;2.53;;;20.30;42.10;;;;;;5000509;28;20109;-83
2023/04/19 12:11:22;;;;;;;4.28;2.97;;;20.40;43.20;;;;;;5006382;28;20269;-83
2023/04/19 12:13:48;;;;;;;4.72;2.75;;;20.60;44.10;;;;;;5004489;28;20096;-82
2023/04/19 12:16:14;;;;;;;2.75;2.38;;;20.80;43.20;;;;;;5005311;28;20097;-78
2023/04/19 12:18:47;;;;;;;8.23;2.45;;;20.40;40.70;;;;;;5004014;28;20045;-79
2023/04/19 12:21:23;;;;;;;;;;;20.50;43.50;;;;;;5013560;28;20030;-80
2023/04/19 12:23:49;;;;;;;5.28;2.60;;;20.30;41.90;;;;;;5000711;28;20005;-83
2023/04/19 12:26:16;;;;;;;6.05;2.45;;;20.40;41.90;;;;;;5006384;28;20670;-79
2023/04/19 12:28:41;;;;;;;11.40;3.15;;;20.40;42.80;;;;;;4998685;28;20036;-79
2023/04/19 12:31:07;;;;;;;9.32;3.13;;;20.50;42.60;;;;;;4996969;28;20433;-80
2023/04/19 12:33:33;;;;;;;5.75;2.80;;;20.60;42.20;;;;;;5001170;28;20105;-79
2023/04/19 12:35:58;;;;;;;3.50;3.20;;;20.60;42.00;;;;;;4997927;28;20044;-79
2023/04/19 12:38:24;;;;;;;5.32;2.60;;;20.70;43.10;;;;;;5001492;28;20455;-79
2023/04/19 12:40:50;;;;;;;11.82;3.22;;;20.90;42.80;;;;;;5003322;28;20557;-78
2023/04/19 12:43:15;;;;;;;3.00;2.70;;;20.90;42.60;;;;;;4999027;28;20029;-80
2023/04/19 12:45:43;;;;;;;4.35;3.35;;;21.00;42.50;;;;;;5002755;28;20026;-80